Decoded Metar for EPBY (BYDGOSZCZ in POLAND) (IATA:N/A) | Meteo·Mobile Aviation Weather
aviador You're here:

EPBY Decoded Metar

BYDGOSZCZ in POLAND
Report Time2019-11-16 02:00:00
UTC Time2019-11-16 02:21:21
Flight Rules ifr IFR
Wind120° at 10 kt
W.Decomp.*RWY 08: 8.2 kt HW 5.7 kt RCW
Visibility6000 m
Phenomena:N/A
Clouds:Overcast 005 Hf
Expected CloudBase > 400 ft AGL from Temp-Dew spread
Ceiling500 ft
Temp09°C (ISA -6)
Dew Point08°C (94% RH)
AAT5.0°C
QNH1010 hPa
Density Alt-184 ft
Elevation233 ft
Report Wrong Elevation
Raw Report
METAR EPBY 160200Z 12010KT 6000 OVC005 09/08 Q1010 =

Extra information for EPBY:More info

Metar Taf Metar & Taf Last 4 Metars F.Rules Stats Wind Profile Meteogram Temp Stats Airport Information Weather charts Add Link Nearby VenuesMetar ALERT Operation Metar Decoded Social comments